createdAt,value
2018-12-09T00:01:29.523Z,0.63
2018-12-09T00:03:57.810Z,0.80
2018-12-09T00:06:26.026Z,0.93
2018-12-09T00:08:54.311Z,0.63
2018-12-09T00:11:22.566Z,0.60
2018-12-09T00:13:50.738Z,0.40
2018-12-09T00:16:18.933Z,0.60
2018-12-09T00:18:47.083Z,0.47
2018-12-09T00:21:15.321Z,0.40
2018-12-09T00:23:43.470Z,0.60
2018-12-09T00:26:11.729Z,0.33
2018-12-09T00:28:39.887Z,0.80
2018-12-09T00:31:08.143Z,0.57
2018-12-09T00:33:36.295Z,0.40
2018-12-09T00:36:04.673Z,0.60
2018-12-09T00:38:32.875Z,0.50
2018-12-09T00:41:01.108Z,0.50
2018-12-09T00:43:29.255Z,0.70
2018-12-09T00:45:57.438Z,0.63
2018-12-09T00:48:25.604Z,1.27
2018-12-09T00:50:53.774Z,1.53
2018-12-09T00:53:22.144Z,0.73
2018-12-09T00:55:50.380Z,1.33
2018-12-09T00:58:18.572Z,1.53
2018-12-09T01:00:46.754Z,1.00
2018-12-09T01:03:15.007Z,0.80
2018-12-09T01:05:43.157Z,1.60
2018-12-09T01:08:11.859Z,1.20
2018-12-09T01:10:40.037Z,1.77
2018-12-09T01:13:08.275Z,1.20
2018-12-09T01:15:36.520Z,1.17
2018-12-09T01:18:04.677Z,0.80
2018-12-09T01:20:33.250Z,0.67
2018-12-09T01:23:01.442Z,1.30
2018-12-09T01:25:29.607Z,2.10
2018-12-09T01:27:57.882Z,1.50
2018-12-09T01:30:26.148Z,0.90
2018-12-09T01:32:54.516Z,2.37
2018-12-09T01:35:23.161Z,0.90
2018-12-09T01:37:51.310Z,2.40
2018-12-09T01:40:19.469Z,1.40
2018-12-09T01:42:47.623Z,1.30
2018-12-09T01:45:15.857Z,1.90
2018-12-09T01:47:44.126Z,1.30
2018-12-09T01:50:12.463Z,1.40
2018-12-09T01:52:40.684Z,1.17
2018-12-09T01:55:08.914Z,2.73
2018-12-09T01:57:37.537Z,1.30
2018-12-09T02:00:06.013Z,1.07
2018-12-09T02:02:34.448Z,1.80
2018-12-09T02:05:02.747Z,1.10
2018-12-09T02:07:30.999Z,0.90
2018-12-09T02:09:59.273Z,0.90
2018-12-09T02:12:27.455Z,0.60
2018-12-09T02:14:55.738Z,1.40
2018-12-09T02:17:24.013Z,1.20
2018-12-09T02:19:52.864Z,1.33
2018-12-09T02:22:21.209Z,2.17
2018-12-09T02:24:49.460Z,2.30
2018-12-09T02:27:17.702Z,1.90
2018-12-09T02:29:46.040Z,2.13
2018-12-09T02:32:14.308Z,1.10
2018-12-09T02:34:50.842Z,1.40
2018-12-09T02:37:19.125Z,1.30
2018-12-09T02:39:47.373Z,1.57
2018-12-09T02:42:15.707Z,1.43
2018-12-09T02:44:44.086Z,1.40
2018-12-09T02:47:12.388Z,2.30
2018-12-09T02:49:40.638Z,1.40
2018-12-09T02:52:09.185Z,0.60
2018-12-09T02:54:37.519Z,0.77
2018-12-09T02:57:05.871Z,0.90
2018-12-09T02:59:34.228Z,0.73
2018-12-09T03:02:02.583Z,0.80
2018-12-09T03:04:30.808Z,0.83
2018-12-09T03:06:59.052Z,0.70
2018-12-09T03:09:27.268Z,0.73
2018-12-09T03:11:55.496Z,0.50
2018-12-09T03:14:23.717Z,0.90
2018-12-09T03:16:51.981Z,0.50
2018-12-09T03:19:20.229Z,0.97
2018-12-09T03:21:48.565Z,0.60
2018-12-09T03:24:16.776Z,0.63
2018-12-09T03:26:45.362Z,0.80
2018-12-09T03:29:13.578Z,0.57
2018-12-09T03:31:41.996Z,0.63
2018-12-09T03:34:10.247Z,0.70
2018-12-09T03:36:38.542Z,0.63
2018-12-09T03:39:07.627Z,0.70
2018-12-09T03:41:36.098Z,0.50
2018-12-09T03:44:04.321Z,0.50
2018-12-09T03:46:32.556Z,1.47
2018-12-09T03:49:00.813Z,0.20
2018-12-09T03:51:29.042Z,1.03
2018-12-09T03:53:57.274Z,0.73
2018-12-09T03:56:25.511Z,0.43
2018-12-09T03:58:53.754Z,0.77
2018-12-09T04:01:22.498Z,1.20
2018-12-09T04:03:50.817Z,0.60
2018-12-09T04:06:19.240Z,1.03
2018-12-09T04:08:47.437Z,1.00
2018-12-09T04:11:15.659Z,1.70
2018-12-09T04:13:44.008Z,0.50
2018-12-09T04:16:12.256Z,0.90
2018-12-09T04:18:40.500Z,1.40
2018-12-09T04:21:08.822Z,0.50
2018-12-09T04:23:36.967Z,0.50
2018-12-09T04:26:05.254Z,0.70
2018-12-09T04:28:33.511Z,1.20
2018-12-09T04:31:01.854Z,0.63
2018-12-09T04:33:30.174Z,0.60
2018-12-09T04:35:58.450Z,0.20
2018-12-09T04:38:26.671Z,1.87
2018-12-09T04:40:54.842Z,0.70
2018-12-09T04:43:23.074Z,0.40
2018-12-09T04:45:51.339Z,0.30
2018-12-09T04:48:19.882Z,0.83
2018-12-09T04:50:48.134Z,0.50
2018-12-09T04:53:16.447Z,0.47
2018-12-09T04:55:44.666Z,0.57
2018-12-09T04:58:12.954Z,0.60
2018-12-09T05:00:56.425Z,0.83
2018-12-09T05:03:24.669Z,0.73
2018-12-09T05:05:52.943Z,0.50
2018-12-09T05:08:21.197Z,0.87
2018-12-09T05:10:49.427Z,0.37
2018-12-09T05:13:17.771Z,0.20
2018-12-09T05:15:46.002Z,0.50
2018-12-09T05:18:14.309Z,0.40
2018-12-09T05:20:42.573Z,0.47
2018-12-09T05:23:10.824Z,0.67
2018-12-09T05:25:39.076Z,1.20
2018-12-09T05:28:07.325Z,0.50
2018-12-09T05:30:35.557Z,0.73
2018-12-09T05:33:04.134Z,0.53
2018-12-09T05:35:32.295Z,0.63
2018-12-09T05:38:00.503Z,0.60
2018-12-09T05:40:28.745Z,0.20
2018-12-09T05:42:56.898Z,0.73
2018-12-09T05:45:25.526Z,0.40
2018-12-09T05:47:53.857Z,0.53
2018-12-09T05:50:22.075Z,0.50
2018-12-09T05:52:50.306Z,0.47
2018-12-09T05:55:18.575Z,0.30
2018-12-09T05:57:47.104Z,0.50
2018-12-09T06:00:15.342Z,0.80
2018-12-09T06:02:53.497Z,0.70
2018-12-09T06:05:21.749Z,0.50
2018-12-09T06:07:50.355Z,0.50
2018-12-09T06:10:18.597Z,0.80
2018-12-09T06:12:46.826Z,2.77
2018-12-09T06:15:15.042Z,2.73
2018-12-09T06:17:43.288Z,4.20
2018-12-09T06:20:11.846Z,4.70
2018-12-09T06:22:40.241Z,7.80
2018-12-09T06:25:08.648Z,5.80
2018-12-09T06:27:36.925Z,8.40
2018-12-09T06:30:07.619Z,4.80
2018-12-09T06:32:42.195Z,6.17
2018-12-09T06:35:10.446Z,6.60
2018-12-09T06:37:38.659Z,7.10
2018-12-09T06:40:07.396Z,5.70
2018-12-09T06:42:36.032Z,3.37
2018-12-09T06:45:05.354Z,3.70
2018-12-09T06:47:33.502Z,3.13
2018-12-09T06:50:01.683Z,2.20
2018-12-09T06:52:29.909Z,1.33
2018-12-09T06:54:58.407Z,1.70
2018-12-09T06:57:26.619Z,2.00
2018-12-09T06:59:54.967Z,1.77
2018-12-09T07:02:23.248Z,1.80
2018-12-09T07:04:51.473Z,1.20
2018-12-09T07:07:20.038Z,2.33
2018-12-09T07:09:48.283Z,1.53
2018-12-09T07:12:16.552Z,1.87
2018-12-09T07:14:44.819Z,1.60
2018-12-09T07:17:12.980Z,2.37
2018-12-09T07:19:41.731Z,2.03
2018-12-09T07:22:09.979Z,1.90
2018-12-09T07:24:38.235Z,1.60
2018-12-09T07:27:06.515Z,1.73
2018-12-09T07:29:34.708Z,2.00
2018-12-09T07:32:03.498Z,1.57
2018-12-09T07:34:31.827Z,1.17
2018-12-09T07:37:00.014Z,1.60
2018-12-09T07:39:28.247Z,1.37
2018-12-09T07:41:56.499Z,1.40
2018-12-09T07:44:25.138Z,1.30
2018-12-09T07:46:53.514Z,1.40
2018-12-09T07:49:21.757Z,0.53
2018-12-09T07:51:49.987Z,1.00
2018-12-09T07:54:18.246Z,1.50
2018-12-09T07:56:46.548Z,2.23
2018-12-09T07:59:14.710Z,1.23
2018-12-09T08:01:43.052Z,1.33
2018-12-09T08:04:11.198Z,0.83
2018-12-09T08:06:39.544Z,1.60
2018-12-09T08:09:07.678Z,1.57
2018-12-09T08:11:36.007Z,2.23
2018-12-09T08:14:04.432Z,1.03
2018-12-09T08:16:32.934Z,0.97
2018-12-09T08:19:01.118Z,1.10
2018-12-09T08:21:29.303Z,1.13
2018-12-09T08:23:57.491Z,1.17
2018-12-09T08:26:25.772Z,1.43
2018-12-09T08:28:54.015Z,1.57
2018-12-09T08:31:22.162Z,1.60
2018-12-09T08:33:50.403Z,1.13
2018-12-09T08:36:18.618Z,1.37
2018-12-09T08:38:46.853Z,1.17
2018-12-09T08:41:14.989Z,1.13
2018-12-09T08:43:43.450Z,1.90
2018-12-09T08:46:11.616Z,2.13
2018-12-09T08:48:39.911Z,1.53
2018-12-09T08:51:08.106Z,0.80
2018-12-09T08:53:36.369Z,1.13
2018-12-09T08:56:04.980Z,1.60
2018-12-09T08:58:33.502Z,1.70
2018-12-09T09:01:02.141Z,1.07
2018-12-09T09:03:30.369Z,1.43
2018-12-09T09:05:58.682Z,0.97
2018-12-09T09:08:27.110Z,1.20
2018-12-09T09:10:55.405Z,2.10
2018-12-09T09:13:23.750Z,1.70
2018-12-09T09:15:52.089Z,1.67
2018-12-09T09:18:20.518Z,3.63
2018-12-09T09:20:48.777Z,1.07
2018-12-09T09:23:17.078Z,1.87
2018-12-09T09:25:45.199Z,1.13
2018-12-09T09:28:13.529Z,0.80
2018-12-09T09:30:41.808Z,0.50
2018-12-09T09:33:10.393Z,0.70
2018-12-09T09:35:39.150Z,0.80
2018-12-09T09:38:07.196Z,1.03
2018-12-09T09:40:35.504Z,0.70
2018-12-09T09:43:03.797Z,1.37
2018-12-09T09:45:32.086Z,1.53
2018-12-09T09:48:00.350Z,0.83
2018-12-09T09:50:28.743Z,1.47
2018-12-09T09:52:57.228Z,1.37
2018-12-09T09:55:25.424Z,0.60
2018-12-09T09:57:53.647Z,0.50
2018-12-09T10:00:21.894Z,5.13
2018-12-09T10:02:50.189Z,1.50
2018-12-09T10:05:18.542Z,0.80
2018-12-09T10:07:46.854Z,1.23
2018-12-09T10:10:15.309Z,0.60
2018-12-09T10:12:43.650Z,0.47
2018-12-09T10:15:11.977Z,0.53
2018-12-09T10:17:40.332Z,0.73
2018-12-09T10:20:08.649Z,0.40
2018-12-09T10:22:36.992Z,0.47
2018-12-09T10:25:05.678Z,0.70
2018-12-09T10:27:33.952Z,0.30
2018-12-09T10:30:02.190Z,1.17
2018-12-09T10:32:30.378Z,0.57
2018-12-09T10:34:58.583Z,0.40
2018-12-09T10:37:26.834Z,0.40
2018-12-09T10:39:55.033Z,0.30
2018-12-09T10:42:23.254Z,0.73
2018-12-09T10:44:51.470Z,0.30
2018-12-09T10:47:19.734Z,0.30
2018-12-09T10:49:47.920Z,0.50
2018-12-09T10:52:16.198Z,0.40
2018-12-09T10:54:44.419Z,0.60
2018-12-09T10:57:12.649Z,0.30
2018-12-09T10:59:41.108Z,0.40
2018-12-09T11:02:14.782Z,0.53
2018-12-09T11:04:42.970Z,0.80
2018-12-09T11:07:11.179Z,0.77
2018-12-09T11:09:39.482Z,0.47
2018-12-09T11:12:07.691Z,0.50
2018-12-09T11:14:35.863Z,0.43
2018-12-09T11:17:04.106Z,0.30
2018-12-09T11:19:32.335Z,0.30
2018-12-09T11:22:00.748Z,0.40
2018-12-09T11:24:28.950Z,0.60
2018-12-09T11:26:57.145Z,0.40
2018-12-09T11:29:25.315Z,0.37
2018-12-09T11:31:53.641Z,0.40
2018-12-09T11:34:21.817Z,0.73
2018-12-09T11:36:50.087Z,0.57
2018-12-09T11:39:18.284Z,0.37
2018-12-09T11:41:46.541Z,0.60
2018-12-09T11:44:14.714Z,0.40
2018-12-09T11:46:43.296Z,0.40
2018-12-09T11:49:11.542Z,0.57
2018-12-09T11:51:39.789Z,0.50
2018-12-09T11:54:08.100Z,0.83
2018-12-09T11:56:36.288Z,0.63
2018-12-09T11:59:04.546Z,2.33
2018-12-09T12:01:32.862Z,0.40
2018-12-09T12:04:01.206Z,0.50
2018-12-09T12:06:29.379Z,0.80
2018-12-09T12:08:57.570Z,1.27
2018-12-09T12:11:25.797Z,0.80
2018-12-09T12:13:53.933Z,0.60
2018-12-09T12:16:22.238Z,0.60
2018-12-09T12:18:50.190Z,0.73
2018-12-09T12:21:18.419Z,0.67
2018-12-09T12:23:46.603Z,1.07
2018-12-09T12:26:15.142Z,0.30
2018-12-09T12:28:43.289Z,0.80
2018-12-09T12:31:11.491Z,0.80
2018-12-09T12:33:39.798Z,0.60
2018-12-09T12:36:08.142Z,0.53
2018-12-09T12:38:36.307Z,0.53
2018-12-09T12:41:04.772Z,0.43
2018-12-09T12:43:33.030Z,1.10
2018-12-09T12:46:01.301Z,0.70
2018-12-09T12:48:29.624Z,0.50
2018-12-09T12:50:57.872Z,0.40
2018-12-09T12:53:26.184Z,0.50
2018-12-09T12:55:54.467Z,0.30
2018-12-09T12:58:22.711Z,0.50
2018-12-09T13:00:51.079Z,0.53
2018-12-09T13:03:19.259Z,0.93
2018-12-09T13:05:47.715Z,0.63
2018-12-09T13:08:16.377Z,0.50
2018-12-09T13:10:44.603Z,0.50
2018-12-09T13:13:12.861Z,0.23
2018-12-09T13:15:41.185Z,0.60
2018-12-09T13:18:16.063Z,0.70
2018-12-09T13:20:44.338Z,0.60
2018-12-09T13:23:12.712Z,0.60
2018-12-09T13:25:41.094Z,0.70
2018-12-09T13:28:09.399Z,0.30
2018-12-09T13:30:37.730Z,1.17
2018-12-09T13:33:06.158Z,0.60
2018-12-09T13:35:34.466Z,0.60
2018-12-09T13:38:02.831Z,0.60
2018-12-09T13:40:31.119Z,0.80
2018-12-09T13:42:59.465Z,0.50
2018-12-09T13:45:27.836Z,0.40
2018-12-09T13:47:56.293Z,0.50
2018-12-09T13:50:24.873Z,0.20
2018-12-09T13:52:53.174Z,0.30
2018-12-09T13:55:21.376Z,0.10
2018-12-09T13:57:49.631Z,0.23
2018-12-09T14:00:20.345Z,0.40
2018-12-09T14:02:48.814Z,1.73
2018-12-09T14:05:16.998Z,0.30
2018-12-09T14:07:45.422Z,0.30
2018-12-09T14:10:13.629Z,0.40
2018-12-09T14:12:41.823Z,0.20
2018-12-09T14:15:10.167Z,0.40
2018-12-09T14:17:38.348Z,0.47
2018-12-09T14:20:08.478Z,0.30
2018-12-09T14:22:36.894Z,0.65
2018-12-09T14:25:06.409Z,0.30
2018-12-09T14:27:36.454Z,0.25
2018-12-09T14:30:06.048Z,0.75
2018-12-09T14:32:34.098Z,0.72
2018-12-09T14:35:02.479Z,0.20
2018-12-09T14:37:30.753Z,0.80
2018-12-09T14:39:59.075Z,0.30
2018-12-09T14:42:27.508Z,0.50
2018-12-09T14:44:55.858Z,0.93
2018-12-09T14:47:24.148Z,0.55
2018-12-09T14:49:52.331Z,0.30
2018-12-09T14:52:20.609Z,0.50
2018-12-09T14:54:48.886Z,0.40
2018-12-09T14:57:17.135Z,0.50
2018-12-09T14:59:45.338Z,0.40
2018-12-09T15:02:13.640Z,0.57
2018-12-09T15:04:41.859Z,0.60
2018-12-09T15:07:10.145Z,0.70
2018-12-09T15:09:38.502Z,0.70
2018-12-09T15:12:07.262Z,0.30
2018-12-09T15:14:35.705Z,0.37
2018-12-09T15:17:04.034Z,0.33
2018-12-09T15:19:32.258Z,0.30
2018-12-09T15:22:00.523Z,0.40
2018-12-09T15:24:28.714Z,0.40
2018-12-09T15:26:56.933Z,0.40
2018-12-09T15:29:25.177Z,0.43
2018-12-09T15:31:53.486Z,0.47
2018-12-09T15:34:21.650Z,0.80
2018-12-09T15:36:49.998Z,0.50
2018-12-09T15:39:18.373Z,0.70
2018-12-09T15:41:46.613Z,0.53
2018-12-09T15:44:14.987Z,0.70
2018-12-09T15:46:43.244Z,0.27
2018-12-09T15:49:11.450Z,0.83
2018-12-09T15:51:39.667Z,0.60
2018-12-09T15:54:07.862Z,0.77
2018-12-09T15:56:36.114Z,1.20
2018-12-09T15:59:04.434Z,0.75
2018-12-09T16:01:32.628Z,0.67
2018-12-09T16:04:00.853Z,0.60
2018-12-09T16:06:29.164Z,0.70
2018-12-09T16:08:57.592Z,0.53
2018-12-09T16:11:25.819Z,1.10
2018-12-09T16:13:54.115Z,0.50
2018-12-09T16:16:22.313Z,0.60
2018-12-09T16:18:50.883Z,1.60
2018-12-09T16:21:19.134Z,0.30
2018-12-09T16:23:47.399Z,0.70
2018-12-09T16:26:15.604Z,0.80
2018-12-09T16:28:43.884Z,0.43
2018-12-09T16:31:12.064Z,0.80
2018-12-09T16:33:40.250Z,0.67
2018-12-09T16:36:08.514Z,0.60
2018-12-09T16:38:36.807Z,0.63
2018-12-09T16:41:04.996Z,0.70
2018-12-09T16:43:33.248Z,0.80
2018-12-09T16:46:01.613Z,0.30
2018-12-09T16:48:29.756Z,0.57
2018-12-09T16:50:57.919Z,0.57
2018-12-09T16:53:26.133Z,0.53
2018-12-09T16:55:54.306Z,0.87
2018-12-09T16:58:22.582Z,0.80
2018-12-09T17:00:50.891Z,0.70
2018-12-09T17:03:19.062Z,1.97
2018-12-09T17:05:47.289Z,0.93
2018-12-09T17:08:15.577Z,1.00
2018-12-09T17:10:43.825Z,1.13
2018-12-09T17:13:12.018Z,1.40
2018-12-09T17:15:40.269Z,0.50
2018-12-09T17:18:08.494Z,0.97
2018-12-09T17:20:36.821Z,1.27
2018-12-09T17:23:05.111Z,0.80
2018-12-09T17:25:33.349Z,1.20
2018-12-09T17:28:01.558Z,0.83
2018-12-09T17:30:29.834Z,1.23
2018-12-09T17:33:09.308Z,1.20
2018-12-09T17:35:59.835Z,1.50
2018-12-09T17:45:32.022Z,0.80
2018-12-09T17:48:16.982Z,1.53
2018-12-09T17:50:59.980Z,0.80
2018-12-09T17:53:28.295Z,0.67
2018-12-09T17:55:56.723Z,0.93
2018-12-09T17:58:25.014Z,3.53
2018-12-09T18:00:53.448Z,2.13
2018-12-09T18:03:21.850Z,1.57
2018-12-09T18:05:49.937Z,1.03
2018-12-09T18:08:18.324Z,1.30
2018-12-09T18:10:46.506Z,1.50
2018-12-09T18:13:14.784Z,1.50
2018-12-09T18:15:43.183Z,1.60
2018-12-09T18:18:11.371Z,1.43
2018-12-09T18:20:39.570Z,1.47
2018-12-09T18:23:09.028Z,2.13
2018-12-09T18:25:37.495Z,1.27
2018-12-09T18:28:05.798Z,1.77
2018-12-09T18:30:34.175Z,1.53
2018-12-09T18:33:02.630Z,1.85
2018-12-09T18:35:31.062Z,1.40
2018-12-09T18:37:59.537Z,1.30
2018-12-09T18:40:27.946Z,1.17
2018-12-09T18:42:56.199Z,1.93
2018-12-09T18:45:24.456Z,1.30
2018-12-09T18:47:52.723Z,1.43
2018-12-09T18:50:21.955Z,0.57
2018-12-09T18:52:50.198Z,1.10
2018-12-09T18:55:18.406Z,0.83
2018-12-09T18:57:46.660Z,0.87
2018-12-09T19:00:15.256Z,1.00
2018-12-09T19:02:43.519Z,1.80
2018-12-09T19:05:12.154Z,0.93
2018-12-09T19:07:40.784Z,1.50
2018-12-09T19:10:09.119Z,1.20
2018-12-09T19:12:37.397Z,1.40
2018-12-09T19:15:05.940Z,0.97
2018-12-09T19:17:34.304Z,1.13
2018-12-09T19:20:02.407Z,1.50
2018-12-09T19:22:30.602Z,1.10
2018-12-09T19:24:58.814Z,0.90
2018-12-09T19:27:27.207Z,1.52
2018-12-09T19:29:55.473Z,2.17
2018-12-09T19:32:23.741Z,1.23
2018-12-09T19:34:52.049Z,0.97
2018-12-09T19:37:20.262Z,0.90
2018-12-09T19:39:48.957Z,1.60
2018-12-09T19:42:17.435Z,1.15
2018-12-09T19:44:45.731Z,1.67
2018-12-09T19:47:13.672Z,1.07
2018-12-09T19:49:42.020Z,1.50
2018-12-09T19:52:10.494Z,1.27
2018-12-09T19:54:38.883Z,1.43
2018-12-09T19:57:07.229Z,1.90
2018-12-09T19:59:35.453Z,1.50
2018-12-09T20:02:03.873Z,1.23
2018-12-09T20:04:32.185Z,1.60
2018-12-09T20:07:00.434Z,1.20
2018-12-09T20:09:28.740Z,1.50
2018-12-09T20:11:56.811Z,0.70
2018-12-09T20:14:25.039Z,0.90
2018-12-09T20:16:53.368Z,2.13
2018-12-09T20:19:21.628Z,1.40
2018-12-09T20:21:49.859Z,1.30
2018-12-09T20:24:18.870Z,1.50
2018-12-09T20:26:47.149Z,1.60
2018-12-09T20:29:15.225Z,1.00
2018-12-09T20:31:43.484Z,1.23
2018-12-09T20:34:11.752Z,1.30
2018-12-09T20:36:40.143Z,1.20
2018-12-09T20:39:08.769Z,0.65
2018-12-09T20:41:37.123Z,0.70
2018-12-09T20:44:05.508Z,1.10
2018-12-09T20:46:34.579Z,0.90
2018-12-09T20:49:02.800Z,1.23
2018-12-09T20:51:31.229Z,1.73
2018-12-09T20:53:59.497Z,1.00
2018-12-09T20:56:27.735Z,1.37
2018-12-09T20:58:56.062Z,1.03
2018-12-09T21:01:24.290Z,1.50
2018-12-09T21:03:52.488Z,0.87
2018-12-09T21:06:20.701Z,1.57
2018-12-09T21:08:48.946Z,0.93
2018-12-09T21:11:17.143Z,1.33
2018-12-09T21:13:45.369Z,1.13
2018-12-09T21:16:13.578Z,0.90
2018-12-09T21:18:41.891Z,1.07
2018-12-09T21:21:10.119Z,0.80
2018-12-09T21:23:38.530Z,1.70
2018-12-09T21:26:06.726Z,1.70
2018-12-09T21:28:34.939Z,1.90
2018-12-09T21:31:03.193Z,1.40
2018-12-09T21:33:31.595Z,0.83
2018-12-09T21:35:59.807Z,1.63
2018-12-09T21:38:27.997Z,0.70
2018-12-09T21:40:56.246Z,1.80
2018-12-09T21:43:24.748Z,0.70
2018-12-09T21:45:52.942Z,1.90
2018-12-09T21:48:21.162Z,1.40
2018-12-09T21:50:49.446Z,1.70
2018-12-09T21:53:17.730Z,2.30
2018-12-09T21:55:46.052Z,0.93
2018-12-09T21:58:14.267Z,1.40
2018-12-09T22:00:42.501Z,2.20
2018-12-09T22:03:10.691Z,1.30
2018-12-09T22:05:38.926Z,2.13
2018-12-09T22:08:07.091Z,1.90
2018-12-09T22:10:35.404Z,1.43
2018-12-09T22:13:03.852Z,1.47
2018-12-09T22:15:32.153Z,1.40
2018-12-09T22:18:00.515Z,2.05
2018-12-09T22:20:28.766Z,2.67
2018-12-09T22:22:56.962Z,2.20
2018-12-09T22:25:25.186Z,1.77
2018-12-09T22:27:54.112Z,1.87
2018-12-09T22:30:22.302Z,1.40
2018-12-09T22:32:50.496Z,1.65
2018-12-09T22:35:18.738Z,2.00
2018-12-09T22:37:47.019Z,1.80
2018-12-09T22:40:15.279Z,1.10
2018-12-09T22:42:43.574Z,1.97
2018-12-09T22:45:12.480Z,1.65
2018-12-09T22:47:40.695Z,1.47
2018-12-09T22:50:09.014Z,1.82
2018-12-09T22:52:37.309Z,1.23
2018-12-09T22:55:05.794Z,1.50
2018-12-09T22:57:34.045Z,1.53
2018-12-09T23:00:02.323Z,1.30
2018-12-09T23:02:36.025Z,1.47
2018-12-09T23:05:04.885Z,1.07
2018-12-09T23:07:38.514Z,1.82
2018-12-09T23:10:06.949Z,2.00
2018-12-09T23:12:35.224Z,1.02
2018-12-09T23:15:03.683Z,2.50
2018-12-09T23:17:31.838Z,1.50
2018-12-09T23:20:00.017Z,1.87
2018-12-09T23:22:28.248Z,1.60
2018-12-09T23:24:56.530Z,1.63
2018-12-09T23:27:24.803Z,0.95
2018-12-09T23:29:53.039Z,1.17
2018-12-09T23:32:21.209Z,2.00
2018-12-09T23:34:49.522Z,2.17
2018-12-09T23:37:17.811Z,2.10
2018-12-09T23:39:46.013Z,3.73
2018-12-09T23:42:14.283Z,2.67
2018-12-09T23:44:42.598Z,1.80
2018-12-09T23:47:10.748Z,1.80
2018-12-09T23:49:38.930Z,1.00
2018-12-09T23:52:07.241Z,0.80
2018-12-09T23:54:35.501Z,1.87
2018-12-09T23:57:03.817Z,1.23
2018-12-09T23:59:32.108Z,0.88
